Time;durP1;ratioP1;P1;durP2;ratioP2;P2;SDS_P1;SDS_P2;PMS_P1;PMS_P2;Temp;Humidity;BMP_temperature;BMP_pressure;BME280_temperature;BME280_humidity;BME280_pressure;Samples;Min_cycle;Max_cycle;Signal;HPM_P1;HPM_P2
2022/11/06 00:00:19;;;;;;;10.68;3.78;;;10.30;99.90;;;;;;4232656;28;20090;-86
2022/11/06 00:02:19;;;;;;;9.45;3.30;;;10.30;99.90;;;;;;4217974;28;20040;-86
2022/11/06 00:04:20;;;;;;;8.52;3.83;;;10.50;99.90;;;;;;4220411;28;20055;-86
2022/11/06 00:08:40;;;;;;;6.38;3.42;;;10.30;99.90;;;;;;4232796;28;20048;-85
2022/11/06 00:10:41;;;;;;;5.63;2.97;;;10.20;99.90;;;;;;4214019;28;20468;-87
2022/11/06 00:12:43;;;;;;;7.50;2.83;;;10.30;99.90;;;;;;4230043;28;20036;-86
2022/11/06 00:14:43;;;;;;;9.50;3.13;;;10.20;99.90;;;;;;4214773;28;20118;-86
2022/11/06 00:16:46;;;;;;;7.75;3.13;;;10.20;99.90;;;;;;4206633;28;20518;-85
2022/11/06 00:18:47;;;;;;;6.55;3.00;;;10.20;99.90;;;;;;4232844;28;20494;-86
2022/11/06 00:20:49;;;;;;;5.93;3.17;;;10.20;99.90;;;;;;4232429;28;20039;-85
2022/11/06 00:22:50;;;;;;;7.53;3.55;;;10.10;99.90;;;;;;4232275;28;20070;-86
2022/11/06 00:24:51;;;;;;;8.40;3.83;;;10.00;99.90;;;;;;4235013;28;20044;-86
2022/11/06 00:26:52;;;;;;;7.50;3.88;;;10.00;99.90;;;;;;4235206;28;20076;-85
2022/11/06 00:28:53;;;;;;;9.10;3.97;;;10.00;99.90;;;;;;4233279;28;20513;-85
2022/11/06 00:31:05;;;;;;;7.53;4.28;;;9.90;99.90;;;;;;4232683;28;20036;-85
2022/11/06 00:33:06;;;;;;;9.18;4.10;;;9.90;99.90;;;;;;4217532;28;20067;-86
2022/11/06 00:35:07;;;;;;;8.80;3.40;;;9.80;99.90;;;;;;4231553;28;20498;-86
2022/11/06 00:37:08;;;;;;;6.50;3.92;;;9.80;99.90;;;;;;4235285;27;20123;-85
2022/11/06 00:39:10;;;;;;;11.88;4.03;;;9.80;99.90;;;;;;4236705;27;20505;-86
2022/11/06 00:41:15;;;;;;;16.80;4.60;;;9.70;99.90;;;;;;4217841;28;20048;-86
2022/11/06 00:43:16;;;;;;;13.88;4.10;;;9.70;99.90;;;;;;4224838;28;20195;-85
2022/11/06 00:45:16;;;;;;;9.32;4.50;;;9.70;99.90;;;;;;4233402;28;20052;-86
2022/11/06 00:47:17;;;;;;;13.30;5.43;;;9.60;99.90;;;;;;4201568;28;20791;-86
2022/11/06 00:49:20;;;;;;;8.30;4.25;;;9.60;99.90;;;;;;4232338;28;20345;-86
2022/11/06 00:51:34;;;;;;;6.50;4.28;;;9.60;99.90;;;;;;4232961;28;20109;-86
2022/11/06 00:53:36;;;;;;;8.48;4.20;;;9.60;99.90;;;;;;4232743;28;20047;-87
2022/11/06 00:55:36;;;;;;;13.20;4.38;;;9.60;99.90;;;;;;4233249;28;20040;-87
2022/11/06 00:57:37;;;;;;;12.30;4.82;;;9.50;99.90;;;;;;4216184;28;20087;-86
2022/11/06 00:59:40;;;;;;;9.63;4.70;;;9.50;99.90;;;;;;4234538;28;20049;-86
2022/11/06 01:01:44;;;;;;;11.93;4.78;;;9.50;99.90;;;;;;4234790;28;20093;-86
2022/11/06 01:03:46;;;;;;;9.95;4.90;;;9.50;99.90;;;;;;4233639;28;20083;-86
2022/11/06 01:05:47;;;;;;;10.00;4.93;;;9.50;99.90;;;;;;4231510;28;20066;-86
2022/11/06 01:07:48;;;;;;;15.27;4.72;;;9.50;99.90;;;;;;4229533;28;20457;-87
2022/11/06 01:09:49;;;;;;;11.57;4.93;;;9.50;99.90;;;;;;4220043;28;20090;-87
2022/11/06 01:11:53;;;;;;;9.95;4.45;;;9.50;99.90;;;;;;4233666;28;20378;-87
2022/11/06 01:13:57;;;;;;;11.85;4.97;;;9.50;99.90;;;;;;4233427;28;20044;-87
2022/11/06 01:15:58;;;;;;;8.77;5.03;;;9.40;99.90;;;;;;4231710;28;20160;-87
2022/11/06 01:17:59;;;;;;;15.60;4.75;;;9.40;99.90;;;;;;4220530;28;20043;-87
2022/11/06 01:20:00;;;;;;;12.35;4.38;;;9.40;99.90;;;;;;4233292;28;20050;-87
2022/11/06 01:22:01;;;;;;;11.07;5.00;;;9.40;99.90;;;;;;4230087;28;20052;-87
2022/11/06 01:24:06;;;;;;;10.43;5.18;;;9.40;99.90;;;;;;4216162;28;20044;-87
2022/11/06 01:26:10;;;;;;;10.15;5.00;;;9.40;99.90;;;;;;4229314;28;20044;-87
2022/11/06 01:28:10;;;;;;;9.70;4.78;;;9.60;99.90;;;;;;4232879;28;20040;-87
2022/11/06 01:30:11;;;;;;;11.10;5.38;;;9.40;99.90;;;;;;4234972;28;20046;-86
2022/11/06 01:32:12;;;;;;;10.30;5.18;;;9.40;99.90;;;;;;4216275;28;20126;-87
2022/11/06 01:34:13;;;;;;;11.65;5.25;;;9.90;99.90;;;;;;4232875;28;20059;-86
2022/11/06 01:36:16;;;;;;;12.80;5.25;;;9.40;99.90;;;;;;4210706;28;20115;-86
2022/11/06 01:38:24;;;;;;;16.52;5.40;;;9.40;99.90;;;;;;4219883;28;20059;-86
2022/11/06 01:40:25;;;;;;;7.57;4.47;;;9.40;99.90;;;;;;4230806;28;20041;-86
2022/11/06 01:42:25;;;;;;;8.82;5.20;;;9.40;99.90;;;;;;4232963;28;20122;-86
2022/11/06 01:44:32;;;;;;;13.35;5.47;;;9.90;99.90;;;;;;4234402;28;20043;-87
2022/11/06 01:46:34;;;;;;;9.63;5.10;;;9.30;99.90;;;;;;4208338;28;20083;-86
2022/11/06 01:48:37;;;;;;;10.60;4.85;;;10.00;99.90;;;;;;4217016;28;20058;-86
2022/11/06 01:50:42;;;;;;;10.20;4.97;;;9.30;99.90;;;;;;4222889;28;20056;-86
2022/11/06 01:52:45;;;;;;;10.23;5.40;;;9.30;99.90;;;;;;4226364;28;20126;-86
2022/11/06 01:54:51;;;;;;;18.15;5.95;;;9.30;99.90;;;;;;4232572;28;20513;-87
2022/11/06 01:56:55;;;;;;;9.68;4.95;;;9.30;99.90;;;;;;4231969;28;20521;-86
2022/11/06 01:58:57;;;;;;;11.18;5.22;;;9.30;99.90;;;;;;4233927;28;20472;-86
2022/11/06 02:00:58;;;;;;;13.07;5.28;;;9.30;99.90;;;;;;4232928;28;20164;-86
2022/11/06 02:03:00;;;;;;;9.38;4.80;;;9.30;99.90;;;;;;4233316;28;20047;-86
2022/11/06 02:05:01;;;;;;;12.05;5.32;;;9.20;99.90;;;;;;4233144;28;20052;-86
2022/11/06 02:07:02;;;;;;;11.68;5.15;;;9.30;99.90;;;;;;4231715;28;20061;-86
2022/11/06 02:09:10;;;;;;;16.92;6.75;;;9.20;99.90;;;;;;4231931;28;20051;-86
2022/11/06 02:11:10;;;;;;;11.10;5.65;;;9.20;99.90;;;;;;4214948;28;20051;-86
2022/11/06 02:13:16;;;;;;;13.85;5.28;;;9.30;99.90;;;;;;4215426;28;20494;-86
2022/11/06 02:15:32;;;;;;;13.68;6.05;;;9.20;99.90;;;;;;4215243;28;20064;-86
2022/11/06 02:18:03;;;;;;;14.43;6.10;;;9.20;99.90;;;;;;4230805;28;20059;-86
2022/11/06 02:20:32;;;;;;;11.52;5.70;;;9.20;99.90;;;;;;4233632;28;20176;-86
2022/11/06 02:22:57;;;;;;;10.80;5.55;;;9.30;99.90;;;;;;4232268;28;20051;-85
2022/11/06 02:25:01;;;;;;;13.60;5.05;;;9.20;99.90;;;;;;4232305;28;20044;-86
2022/11/06 02:27:05;;;;;;;13.20;6.72;;;9.20;99.90;;;;;;4231625;28;20047;-86
2022/11/06 02:29:11;;;;;;;9.02;4.93;;;9.20;99.90;;;;;;4228927;28;20424;-87
2022/11/06 02:31:16;;;;;;;10.68;5.60;;;9.20;99.90;;;;;;4232632;28;20496;-86
2022/11/06 02:33:43;;;;;;;10.65;5.78;;;9.20;99.90;;;;;;4237060;28;20047;-86
2022/11/06 02:36:03;;;;;;;10.55;5.43;;;9.20;99.90;;;;;;4244906;28;20047;-85
2022/11/06 02:38:13;;;;;;;12.45;4.82;;;9.20;99.90;;;;;;4243860;28;20050;-85
2022/11/06 02:40:17;;;;;;;14.00;4.95;;;9.20;99.90;;;;;;4245469;28;20055;-86
2022/11/06 02:42:19;;;;;;;10.25;5.50;;;9.20;99.90;;;;;;4243017;28;20093;-85
2022/11/06 02:44:25;;;;;;;9.13;5.13;;;9.20;99.90;;;;;;4233999;27;20048;-85
2022/11/06 02:46:44;;;;;;;15.98;6.72;;;9.30;99.90;;;;;;4229829;28;20051;-86
2022/11/06 02:48:49;;;;;;;9.65;5.10;;;9.30;99.90;;;;;;4232936;28;20058;-86
2022/11/06 02:50:53;;;;;;;15.13;5.15;;;9.30;99.90;;;;;;4216254;28;20043;-86
2022/11/06 02:52:59;;;;;;;9.88;5.38;;;9.30;99.90;;;;;;4214834;28;20054;-87
2022/11/06 02:55:08;;;;;;;7.70;5.43;;;9.30;99.90;;;;;;4211010;28;20055;-86
2022/11/06 02:57:15;;;;;;;9.55;5.20;;;9.30;99.90;;;;;;4218482;28;20083;-86
2022/11/06 02:59:39;;;;;;;11.35;6.30;;;9.30;99.90;;;;;;4246356;27;20091;-87
2022/11/06 03:01:54;;;;;;;11.30;5.72;;;9.30;99.90;;;;;;4231757;28;20059;-87
2022/11/06 03:04:02;;;;;;;10.35;5.07;;;9.30;99.90;;;;;;4232204;28;20081;-86
2022/11/06 03:06:10;;;;;;;11.98;5.13;;;9.30;99.90;;;;;;4231379;28;20486;-86
2022/11/06 03:08:22;;;;;;;15.75;6.38;;;9.30;99.90;;;;;;4214587;28;20064;-86
2022/11/06 03:10:29;;;;;;;9.45;5.03;;;9.30;99.90;;;;;;4231835;28;20050;-86
2022/11/06 03:12:36;;;;;;;10.43;5.18;;;9.30;99.90;;;;;;4230682;28;20467;-86
2022/11/06 03:14:51;;;;;;;12.25;5.53;;;9.30;99.90;;;;;;4214371;28;20114;-87
2022/11/06 03:16:57;;;;;;;13.27;5.35;;;9.30;99.90;;;;;;4226620;28;20473;-87
2022/11/06 03:19:17;;;;;;;10.65;6.18;;;9.30;99.90;;;;;;4232179;28;20105;-87
2022/11/06 03:21:22;;;;;;;9.20;4.55;;;9.30;99.90;;;;;;4230912;28;20075;-87
2022/11/06 03:23:48;;;;;;;12.07;5.60;;;9.30;99.90;;;;;;4231710;28;20089;-87
2022/11/06 03:26:00;;;;;;;9.73;5.15;;;9.30;99.90;;;;;;4230900;28;20479;-86
2022/11/06 03:28:20;;;;;;;8.00;5.15;;;9.30;99.90;;;;;;4214241;28;20083;-86
2022/11/06 03:30:23;;;;;;;10.30;4.80;;;9.40;99.90;;;;;;4235526;28;20055;-86
2022/11/06 03:32:37;;;;;;;12.48;5.60;;;9.40;99.90;;;;;;4241861;28;20046;-86
2022/11/06 03:34:52;;;;;;;9.82;5.50;;;9.40;99.90;;;;;;4233113;28;20535;-86
2022/11/06 03:37:02;;;;;;;10.45;6.53;;;9.60;99.90;;;;;;4236516;28;20063;-86
2022/11/06 03:39:08;;;;;;;12.30;5.57;;;9.40;99.90;;;;;;4234693;28;20068;-86
2022/11/06 03:41:17;;;;;;;7.43;4.85;;;9.40;99.90;;;;;;4234099;28;20071;-86
2022/11/06 03:43:23;;;;;;;9.48;4.93;;;9.40;99.90;;;;;;4215464;28;20056;-86
2022/11/06 03:45:26;;;;;;;12.48;5.45;;;9.40;99.90;;;;;;4232342;28;20130;-86
2022/11/06 03:47:50;;;;;;;9.35;5.57;;;9.40;99.90;;;;;;4233215;28;20047;-86
2022/11/06 03:50:18;;;;;;;8.10;4.53;;;9.40;99.90;;;;;;4220357;28;20088;-86
2022/11/06 03:52:33;;;;;;;11.73;5.28;;;9.80;99.90;;;;;;4216487;28;20127;-87
2022/11/06 03:55:10;;;;;;;9.68;4.80;;;9.40;99.90;;;;;;4232636;28;20044;-86
2022/11/06 03:57:26;;;;;;;12.98;5.28;;;9.40;99.90;;;;;;4203832;28;20560;-87
2022/11/06 03:59:32;;;;;;;11.10;4.97;;;9.40;99.90;;;;;;4233087;28;20046;-86
2022/11/06 04:01:38;;;;;;;12.75;5.32;;;9.40;99.90;;;;;;4232475;28;20079;-86
2022/11/06 04:03:48;;;;;;;12.73;5.68;;;9.40;99.90;;;;;;4231821;28;20043;-86
2022/11/06 04:05:59;;;;;;;12.32;5.57;;;9.40;99.90;;;;;;4232231;28;20491;-86
2022/11/06 04:15:02;;;;;;;9.25;5.05;;;9.40;99.90;;;;;;4232206;28;20301;-86
2022/11/06 04:17:07;;;;;;;10.43;5.07;;;9.40;99.90;;;;;;4232507;28;20055;-86
2022/11/06 04:19:19;;;;;;;10.20;4.93;;;9.40;99.90;;;;;;4232539;28;20047;-86
2022/11/06 04:21:38;;;;;;;9.73;4.97;;;9.40;99.90;;;;;;4233951;28;20050;-86
2022/11/06 04:26:34;;;;;;;;;;;9.40;99.90;;;;;;4224383;28;20086;-86
2022/11/06 04:26:34;;;;;;;10.77;4.80;;;9.40;99.90;;;;;;4230274;28;19930;-87
2022/11/06 04:28:50;;;;;;;12.15;6.03;;;9.40;99.90;;;;;;4214609;28;20055;-86
2022/11/06 04:31:00;;;;;;;12.18;5.35;;;9.40;99.90;;;;;;4232292;28;20056;-87
2022/11/06 04:33:24;;;;;;;11.00;5.20;;;9.40;99.90;;;;;;4234238;28;20043;-86
2022/11/06 04:35:56;;;;;;;9.50;5.15;;;9.40;99.90;;;;;;4232722;28;20051;-86
2022/11/06 04:38:07;;;;;;;12.80;4.60;;;9.40;99.90;;;;;;4231564;28;20070;-86
2022/11/06 04:40:13;;;;;;;11.43;5.28;;;9.40;99.90;;;;;;4225468;28;20448;-86
2022/11/06 04:42:21;;;;;;;11.00;4.90;;;9.60;99.90;;;;;;4196694;28;20164;-86
2022/11/06 04:44:54;;;;;;;11.80;5.13;;;9.30;99.90;;;;;;4215385;28;20414;-86
2022/11/06 04:47:06;;;;;;;10.32;4.55;;;9.40;99.90;;;;;;4229902;28;20047;-86
2022/11/06 04:49:09;;;;;;;10.13;5.03;;;9.50;99.90;;;;;;4235889;28;20048;-86
2022/11/06 04:51:12;;;;;;;7.72;4.50;;;9.40;99.90;;;;;;4217622;28;20152;-86
2022/11/06 04:53:15;;;;;;;8.95;4.82;;;9.40;99.90;;;;;;4228184;28;20080;-86
2022/11/06 04:55:16;;;;;;;11.18;5.20;;;9.40;99.90;;;;;;4224938;28;20075;-86
2022/11/06 04:57:18;;;;;;;10.77;5.95;;;9.40;99.90;;;;;;4215809;28;20044;-86
2022/11/06 04:59:19;;;;;;;13.88;5.55;;;9.40;99.90;;;;;;4229248;28;20056;-86
2022/11/06 05:01:20;;;;;;;9.52;4.80;;;9.40;99.90;;;;;;4230492;28;20413;-87
2022/11/06 05:03:21;;;;;;;7.80;4.38;;;9.40;99.90;;;;;;4232467;28;20051;-87
2022/11/06 05:05:22;;;;;;;8.35;4.65;;;9.40;99.90;;;;;;4216258;28;20052;-86
2022/11/06 05:07:23;;;;;;;9.18;4.72;;;9.40;99.90;;;;;;4208370;28;20579;-86
2022/11/06 05:09:27;;;;;;;9.70;4.75;;;9.50;99.90;;;;;;4233747;28;20497;-86
2022/11/06 05:11:27;;;;;;;12.30;4.82;;;9.40;99.90;;;;;;4232363;28;20039;-86
2022/11/06 05:13:28;;;;;;;9.77;4.35;;;9.40;99.90;;;;;;4226501;28;20159;-86
2022/11/06 05:15:29;;;;;;;8.55;4.60;;;9.60;99.90;;;;;;4217502;28;20040;-86
2022/11/06 05:17:30;;;;;;;9.75;4.88;;;9.50;99.90;;;;;;4233218;28;20958;-86
2022/11/06 05:19:30;;;;;;;13.70;4.68;;;9.50;99.90;;;;;;4225313;28;20490;-86
2022/11/06 05:23:50;;;;;;;;;;;9.50;99.90;;;;;;4217061;28;20063;-86
2022/11/06 05:25:51;;;;;;;8.27;3.95;;;9.50;99.90;;;;;;4228504;28;19979;-86
2022/11/06 05:27:51;;;;;;;10.20;4.75;;;9.50;99.90;;;;;;4218276;28;20048;-86
2022/11/06 05:29:54;;;;;;;8.65;4.65;;;9.50;99.90;;;;;;4234869;28;20574;-86
2022/11/06 05:31:55;;;;;;;6.93;4.15;;;9.50;99.90;;;;;;4216667;28;20051;-85
2022/11/06 05:33:55;;;;;;;11.10;4.32;;;9.50;99.90;;;;;;4234673;28;20048;-86
2022/11/06 05:36:04;;;;;;;11.27;4.20;;;9.50;99.90;;;;;;4231976;28;20044;-85
2022/11/06 05:38:05;;;;;;;12.33;4.60;;;9.50;99.90;;;;;;4233245;28;20043;-86
2022/11/06 05:40:07;;;;;;;12.05;4.93;;;9.50;99.90;;;;;;4232576;28;20886;-86
2022/11/06 05:42:08;;;;;;;12.07;5.28;;;9.40;99.90;;;;;;4216148;28;20113;-86
2022/11/06 05:44:09;;;;;;;10.48;4.32;;;9.50;99.90;;;;;;4232553;28;20051;-86
2022/11/06 05:46:10;;;;;;;11.95;4.15;;;9.40;99.90;;;;;;4220738;28;20101;-86
2022/11/06 05:48:11;;;;;;;10.75;3.90;;;9.50;99.90;;;;;;4232935;28;20128;-86
2022/11/06 05:50:12;;;;;;;7.30;4.63;;;9.50;99.90;;;;;;4236437;28;20082;-85
2022/11/06 05:52:13;;;;;;;6.60;4.18;;;9.40;99.90;;;;;;4228598;28;20055;-85
2022/11/06 05:54:14;;;;;;;8.40;4.10;;;9.50;99.90;;;;;;4222666;28;20493;-85
2022/11/06 05:56:15;;;;;;;9.63;4.68;;;9.50;99.90;;;;;;4229897;28;20400;-85
2022/11/06 05:58:16;;;;;;;10.80;4.28;;;9.50;99.90;;;;;;4226014;28;20044;-85
2022/11/06 06:00:16;;;;;;;10.70;4.18;;;9.40;99.90;;;;;;4200583;28;20406;-85
2022/11/06 06:02:17;;;;;;;11.75;5.10;;;9.40;99.90;;;;;;4221162;28;20044;-86
2022/11/06 06:04:18;;;;;;;7.05;4.50;;;9.50;99.90;;;;;;4232477;28;20052;-86
2022/11/06 06:06:19;;;;;;;11.23;4.10;;;9.50;99.90;;;;;;4232374;28;20044;-85
2022/11/06 06:08:20;;;;;;;9.57;4.13;;;9.50;99.90;;;;;;4231837;28;20081;-85
2022/11/06 06:10:21;;;;;;;10.20;4.00;;;9.50;99.90;;;;;;4228478;28;20044;-86
2022/11/06 06:12:25;;;;;;;9.70;3.58;;;9.50;99.90;;;;;;4217070;28;20043;-85
2022/11/06 06:14:26;;;;;;;12.98;4.15;;;9.50;99.90;;;;;;4231637;28;20436;-85
2022/11/06 06:16:27;;;;;;;5.57;3.70;;;9.40;99.90;;;;;;4233029;28;20083;-86
2022/11/06 06:18:28;;;;;;;9.25;4.30;;;9.50;99.90;;;;;;4232094;28;20051;-86
2022/11/06 06:20:30;;;;;;;7.35;3.95;;;9.50;99.90;;;;;;4229684;28;20542;-86
2022/11/06 06:22:31;;;;;;;11.15;3.60;;;9.70;99.90;;;;;;4206113;28;20044;-86
2022/11/06 06:24:32;;;;;;;7.68;3.30;;;9.50;99.90;;;;;;4222891;28;20040;-87
2022/11/06 06:26:33;;;;;;;6.13;3.20;;;9.50;99.90;;;;;;4216820;28;20043;-85
2022/11/06 06:28:39;;;;;;;7.72;3.92;;;9.50;99.90;;;;;;4217261;28;20040;-86
2022/11/06 06:30:40;;;;;;;12.82;4.68;;;9.50;99.90;;;;;;4219858;28;20055;-87
2022/11/06 06:32:41;;;;;;;12.93;4.88;;;9.60;99.90;;;;;;4237871;28;20063;-86
2022/11/06 06:34:42;;;;;;;7.35;3.67;;;9.50;99.90;;;;;;4236904;28;20051;-86
2022/11/06 06:36:43;;;;;;;8.90;3.40;;;9.60;99.90;;;;;;4240262;28;20043;-86
2022/11/06 06:38:44;;;;;;;10.88;4.13;;;9.50;99.90;;;;;;4241805;28;20050;-85
2022/11/06 06:40:46;;;;;;;6.45;2.83;;;9.40;99.90;;;;;;4242637;28;20040;-85
2022/11/06 06:42:49;;;;;;;6.55;3.15;;;9.50;99.90;;;;;;4242756;28;20045;-85
2022/11/06 06:44:51;;;;;;;11.68;3.75;;;10.10;99.90;;;;;;4241862;28;20074;-85
2022/11/06 06:46:52;;;;;;;7.47;3.50;;;9.40;99.90;;;;;;4232020;28;20046;-86
2022/11/06 06:48:59;;;;;;;6.28;3.97;;;9.50;99.90;;;;;;4232544;28;20050;-86
2022/11/06 06:51:01;;;;;;;12.43;3.78;;;9.50;99.90;;;;;;4232852;27;20088;-86
2022/11/06 06:53:02;;;;;;;8.07;3.55;;;9.40;99.90;;;;;;4219144;28;20097;-85
2022/11/06 06:55:05;;;;;;;5.53;3.38;;;9.50;99.90;;;;;;4218757;28;20083;-86
2022/11/06 06:57:09;;;;;;;7.60;4.07;;;9.40;99.90;;;;;;4232299;28;20036;-86
2022/11/06 06:59:09;;;;;;;5.88;3.35;;;9.40;99.90;;;;;;4231498;28;20079;-86
2022/11/06 07:01:10;;;;;;;6.95;3.55;;;9.40;99.90;;;;;;4232965;28;20059;-86
2022/11/06 07:03:11;;;;;;;20.10;4.22;;;9.50;99.90;;;;;;4231916;28;20043;-86
2022/11/06 07:05:12;;;;;;;9.82;3.85;;;9.50;99.90;;;;;;4217879;28;20040;-86
2022/11/06 07:07:14;;;;;;;9.10;3.05;;;9.50;99.90;;;;;;4219787;28;20069;-86
2022/11/06 07:09:15;;;;;;;7.57;2.90;;;9.50;99.90;;;;;;4230674;28;20043;-86
2022/11/06 07:11:17;;;;;;;8.02;3.28;;;9.40;99.90;;;;;;4232951;28;20067;-86
2022/11/06 07:13:18;;;;;;;12.13;2.53;;;9.50;99.90;;;;;;4231337;27;20100;-86
2022/11/06 07:15:19;;;;;;;10.05;3.00;;;9.50;99.90;;;;;;4231316;28;20043;-86
2022/11/06 07:17:20;;;;;;;6.32;3.00;;;9.50;99.90;;;;;;4214444;28;20056;-85
2022/11/06 07:19:20;;;;;;;14.40;3.17;;;9.50;99.90;;;;;;4230170;28;20127;-86
2022/11/06 07:21:21;;;;;;;7.72;2.38;;;9.50;99.90;;;;;;4231156;28;20047;-85
2022/11/06 07:23:23;;;;;;;8.23;3.45;;;9.50;99.90;;;;;;4215939;28;20627;-86
2022/11/06 07:25:24;;;;;;;8.13;2.72;;;9.50;99.90;;;;;;4221936;28;20043;-85
2022/11/06 07:27:27;;;;;;;7.63;3.42;;;9.50;99.90;;;;;;4230660;28;20059;-86
2022/11/06 07:29:28;;;;;;;8.35;2.83;;;9.60;99.90;;;;;;4230255;28;20044;-86
2022/11/06 07:31:30;;;;;;;10.45;3.25;;;9.60;99.90;;;;;;4230331;28;20047;-85
2022/11/06 07:33:31;;;;;;;10.10;2.47;;;9.60;99.90;;;;;;4219629;28;20055;-85
2022/11/06 07:35:33;;;;;;;6.85;2.20;;;9.60;99.90;;;;;;4231458;28;20473;-86
2022/11/06 07:37:34;;;;;;;9.38;2.47;;;9.60;99.90;;;;;;4230423;28;20071;-86
2022/11/06 07:39:35;;;;;;;11.02;2.53;;;9.70;99.90;;;;;;4213012;28;20044;-86
2022/11/06 07:41:36;;;;;;;8.20;2.72;;;9.70;99.90;;;;;;4230013;28;20039;-86
2022/11/06 07:43:39;;;;;;;6.45;2.50;;;9.70;99.90;;;;;;4212679;28;20127;-86
2022/11/06 07:45:40;;;;;;;7.93;2.70;;;9.80;99.90;;;;;;4231387;28;20100;-86
2022/11/06 07:47:41;;;;;;;5.38;2.42;;;9.80;99.90;;;;;;4230184;28;20082;-86
2022/11/06 07:49:41;;;;;;;7.53;2.42;;;9.90;99.90;;;;;;4230364;28;20102;-86
2022/11/06 07:51:43;;;;;;;5.40;2.78;;;9.90;99.90;;;;;;4230989;28;20436;-86
2022/11/06 07:53:43;;;;;;;8.05;2.72;;;9.90;99.90;;;;;;4229790;28;20055;-86
2022/11/06 07:55:50;;;;;;;7.10;2.42;;;9.90;99.90;;;;;;4229725;28;20078;-86
2022/11/06 07:57:51;;;;;;;7.90;2.33;;;9.90;99.90;;;;;;4230788;28;20035;-85
2022/11/06 07:59:52;;;;;;;9.35;2.70;;;9.90;99.90;;;;;;4231053;28;20044;-85
2022/11/06 08:01:54;;;;;;;6.88;2.70;;;9.80;99.90;;;;;;4230270;28;20406;-87
2022/11/06 08:03:57;;;;;;;9.20;2.92;;;9.80;99.90;;;;;;4235691;28;20138;-87
2022/11/06 08:06:01;;;;;;;4.60;2.30;;;9.80;99.90;;;;;;4232854;28;20044;-87
2022/11/06 08:08:02;;;;;;;4.43;2.33;;;9.80;99.90;;;;;;4230585;28;20127;-86
2022/11/06 08:10:03;;;;;;;7.50;2.35;;;9.80;99.90;;;;;;4227059;28;20085;-87
2022/11/06 08:12:04;;;;;;;5.57;2.20;;;9.80;99.90;;;;;;4215273;28;20410;-87
2022/11/06 08:14:05;;;;;;;7.63;2.58;;;9.70;99.90;;;;;;4226636;28;20059;-86
2022/11/06 08:16:11;;;;;;;8.80;2.53;;;9.80;99.90;;;;;;4232474;28;20417;-88
2022/11/06 08:18:12;;;;;;;10.02;2.92;;;9.80;99.90;;;;;;4233267;28;20131;-85
2022/11/06 08:20:13;;;;;;;7.43;2.58;;;9.70;99.90;;;;;;4227043;28;20502;-86
2022/11/06 08:22:14;;;;;;;11.35;3.13;;;9.70;99.90;;;;;;4214996;28;20040;-86
2022/11/06 08:24:15;;;;;;;9.70;2.03;;;9.70;99.90;;;;;;4215508;28;20123;-85
2022/11/06 08:26:18;;;;;;;7.75;2.33;;;9.70;99.90;;;;;;4240868;28;20414;-86
2022/11/06 08:28:20;;;;;;;4.10;2.00;;;9.70;99.90;;;;;;4248592;28;20079;-87
2022/11/06 08:30:24;;;;;;;9.15;2.70;;;9.70;99.90;;;;;;4247829;28;20031;-87
2022/11/06 08:32:24;;;;;;;7.05;2.30;;;9.70;99.90;;;;;;4249152;28;20083;-86
2022/11/06 08:34:25;;;;;;;11.73;3.03;;;9.70;99.90;;;;;;4226978;28;20060;-86
2022/11/06 08:36:26;;;;;;;8.40;2.50;;;9.70;99.90;;;;;;4246159;28;20047;-86
2022/11/06 08:38:26;;;;;;;8.93;2.20;;;9.70;99.90;;;;;;4230175;28;20185;-86
2022/11/06 08:40:27;;;;;;;6.38;2.13;;;9.80;99.90;;;;;;4229045;28;20517;-87
2022/11/06 08:42:29;;;;;;;8.30;2.20;;;9.80;99.90;;;;;;4233445;28;20047;-86
2022/11/06 08:44:29;;;;;;;5.10;2.42;;;10.20;99.90;;;;;;4218712;28;20036;-85
2022/11/06 08:46:30;;;;;;;5.90;2.00;;;9.90;99.90;;;;;;4227244;28;20050;-87
2022/11/06 08:48:38;;;;;;;6.97;2.97;;;9.80;99.90;;;;;;4235791;28;20055;-87
2022/11/06 08:50:40;;;;;;;4.45;1.98;;;9.90;99.90;;;;;;4218427;28;20080;-86
2022/11/06 08:52:41;;;;;;;6.47;1.98;;;9.90;99.90;;;;;;4228005;28;20488;-86
2022/11/06 08:54:42;;;;;;;6.45;2.35;;;10.00;99.90;;;;;;4233047;28;20047;-86
2022/11/06 08:56:43;;;;;;;4.15;2.30;;;10.00;99.90;;;;;;4234383;28;20054;-86
2022/11/06 08:58:43;;;;;;;4.97;1.70;;;10.10;99.90;;;;;;4232792;28;20095;-87
2022/11/06 09:00:45;;;;;;;5.50;1.90;;;10.10;99.90;;;;;;4232178;28;20047;-87
2022/11/06 09:02:46;;;;;;;4.95;2.00;;;10.10;99.90;;;;;;4232185;28;20409;-87
2022/11/06 09:04:46;;;;;;;8.07;2.50;;;10.10;99.90;;;;;;4234331;28;20045;-87
2022/11/06 09:06:47;;;;;;;6.82;1.88;;;10.10;99.90;;;;;;4233574;28;20036;-87
2022/11/06 09:08:48;;;;;;;6.13;2.03;;;10.10;99.90;;;;;;4234160;28;20089;-86
2022/11/06 09:10:49;;;;;;;4.78;2.25;;;10.20;99.90;;;;;;4224592;28;20482;-87
2022/11/06 09:12:50;;;;;;;7.60;2.88;;;10.20;99.90;;;;;;4218358;28;20059;-88
2022/11/06 09:14:52;;;;;;;7.07;2.08;;;10.20;99.90;;;;;;4232680;27;20042;-86
2022/11/06 09:16:54;;;;;;;7.63;3.15;;;10.20;99.90;;;;;;4228818;28;20087;-87
2022/11/06 09:18:55;;;;;;;10.55;1.95;;;10.30;99.90;;;;;;4223113;28;20036;-87
2022/11/06 09:20:57;;;;;;;4.70;2.00;;;10.20;99.90;;;;;;4234388;28;20051;-87
2022/11/06 09:23:05;;;;;;;5.22;2.10;;;10.50;99.90;;;;;;4221992;28;20582;-87
2022/11/06 09:25:07;;;;;;;7.72;1.70;;;10.50;99.90;;;;;;4221264;28;20047;-88
2022/11/06 09:27:08;;;;;;;4.47;2.00;;;10.60;99.90;;;;;;4217472;28;20055;-88
2022/11/06 09:29:08;;;;;;;6.22;2.58;;;10.60;99.90;;;;;;4229989;28;20040;-88
2022/11/06 09:31:09;;;;;;;5.43;2.38;;;10.60;99.90;;;;;;4234987;28;20155;-88
2022/11/06 09:33:10;;;;;;;5.70;1.88;;;10.60;99.90;;;;;;4217924;28;20052;-87
2022/11/06 09:35:11;;;;;;;8.68;2.35;;;10.60;99.90;;;;;;4224272;28;20044;-87
2022/11/06 09:37:11;;;;;;;10.00;2.13;;;10.60;99.90;;;;;;4204775;28;20036;-87
2022/11/06 09:39:12;;;;;;;7.20;1.63;;;10.70;99.90;;;;;;4214949;28;20101;-87
2022/11/06 09:41:36;;;;;;;7.00;2.22;;;10.70;99.90;;;;;;4233611;28;20039;-86
2022/11/06 09:44:12;;;;;;;8.48;2.13;;;10.70;99.90;;;;;;4232154;28;20047;-86
2022/11/06 09:46:25;;;;;;;3.88;1.83;;;10.70;99.90;;;;;;4237628;27;20048;-87
2022/11/06 09:48:36;;;;;;;8.25;2.20;;;10.70;99.90;;;;;;4215478;28;20111;-86
2022/11/06 09:50:43;;;;;;;8.05;2.42;;;10.70;99.90;;;;;;4215453;28;20056;-87
2022/11/06 09:52:53;;;;;;;7.53;1.80;;;10.70;99.90;;;;;;4215132;28;20107;-86
2022/11/06 09:55:18;;;;;;;5.10;1.92;;;10.70;99.90;;;;;;4200632;28;20053;-87
2022/11/06 09:57:24;;;;;;;4.85;1.40;;;10.70;99.90;;;;;;4216111;28;20109;-87
2022/11/06 09:59:25;;;;;;;5.55;1.98;;;10.80;99.90;;;;;;4230547;28;20056;-87
2022/11/06 10:01:42;;;;;;;5.72;2.33;;;10.80;99.90;;;;;;4225209;28;20055;-86
2022/11/06 10:03:55;;;;;;;9.43;1.88;;;10.80;99.90;;;;;;4216837;28;20125;-87
2022/11/06 10:05:56;;;;;;;9.38;1.73;;;10.90;99.90;;;;;;4220667;28;20546;-88
2022/11/06 10:08:04;;;;;;;5.30;1.50;;;10.90;99.90;;;;;;4214975;28;20105;-89
2022/11/06 10:10:10;;;;;;;8.35;2.28;;;10.90;99.90;;;;;;4234363;28;20051;-87
2022/11/06 10:12:27;;;;;;;4.50;1.80;;;10.90;99.90;;;;;;4241969;28;20089;-88
2022/11/06 10:14:56;;;;;;;5.70;1.40;;;10.90;99.90;;;;;;4234159;28;20050;-87
2022/11/06 10:17:23;;;;;;;11.35;2.40;;;10.90;99.90;;;;;;4231166;28;20176;-87
2022/11/06 10:19:51;;;;;;;5.43;1.70;;;11.00;99.90;;;;;;4231494;28;20112;-87
2022/11/06 10:22:11;;;;;;;10.35;1.67;;;10.90;99.90;;;;;;4231625;28;20501;-87
2022/11/06 10:24:40;;;;;;;4.25;1.50;;;10.90;99.90;;;;;;4230697;28;20059;-87
2022/11/06 10:26:48;;;;;;;7.63;2.33;;;11.00;99.90;;;;;;4214360;28;20409;-87
2022/11/06 10:28:57;;;;;;;3.97;1.60;;;10.90;99.90;;;;;;4228423;28;20059;-88
2022/11/06 10:31:22;;;;;;;6.05;1.25;;;11.00;99.90;;;;;;4219898;28;20051;-88
2022/11/06 10:33:44;;;;;;;13.77;1.90;;;11.00;99.90;;;;;;4231924;28;20056;-87
2022/11/06 10:36:01;;;;;;;3.47;1.63;;;11.10;99.90;;;;;;4224192;28;20047;-87
2022/11/06 10:38:26;;;;;;;4.70;1.45;;;11.10;99.90;;;;;;4230219;28;20044;-85
2022/11/06 10:40:30;;;;;;;2.33;1.30;;;11.10;99.90;;;;;;4232587;28;20463;-86
2022/11/06 10:42:37;;;;;;;4.28;1.58;;;11.20;99.90;;;;;;4232703;28;20116;-87
2022/11/06 10:44:44;;;;;;;5.95;1.90;;;11.20;99.90;;;;;;4216752;28;20482;-87
2022/11/06 10:46:52;;;;;;;3.33;1.35;;;11.20;99.90;;;;;;4225624;28;20096;-87
2022/11/06 10:49:16;;;;;;;8.90;1.65;;;11.20;99.90;;;;;;4232776;28;20398;-87
2022/11/06 10:51:35;;;;;;;6.32;1.98;;;11.30;99.90;;;;;;4204180;28;20062;-88
2022/11/06 10:53:38;;;;;;;3.30;1.38;;;11.30;99.90;;;;;;4231513;28;20086;-88
2022/11/06 10:55:54;;;;;;;4.75;1.35;;;12.10;99.90;;;;;;4230809;28;20646;-87
2022/11/06 10:58:02;;;;;;;6.68;1.60;;;11.50;99.90;;;;;;4231826;28;20047;-86
2022/11/06 11:00:04;;;;;;;10.82;2.00;;;11.50;99.90;;;;;;4232878;28;20146;-88
2022/11/06 11:02:32;;;;;;;4.35;1.08;;;11.50;99.90;;;;;;4247991;27;20050;-85
2022/11/06 11:04:34;;;;;;;6.40;1.35;;;11.50;99.90;;;;;;4231977;28;20096;-87
2022/11/06 11:06:39;;;;;;;3.88;1.30;;;11.50;99.90;;;;;;4230865;28;20039;-86
2022/11/06 11:08:42;;;;;;;5.68;1.27;;;11.60;99.90;;;;;;4231646;28;20039;-86